Time;durP1;ratioP1;P1;durP2;ratioP2;P2;SDS_P1;SDS_P2;PMS_P1;PMS_P2;Temp;Humidity;BMP_temperature;BMP_pressure;BME280_temperature;BME280_humidity;BME280_pressure;Samples;Min_cycle;Max_cycle;Signal;HPM_P1;HPM_P2
2021/05/10 00:00:40;;;;;;;3.47;2.67;;;;;;;16.68;60.22;99973.75;4974020;28;20050;-82
2021/05/10 00:03:06;;;;;;;5.57;2.75;;;;;;;16.58;60.01;99970.75;4979412;28;20210;-82
2021/05/10 00:05:33;;;;;;;3.50;3.10;;;;;;;16.58;59.45;99982.28;4959095;28;20100;-82
2021/05/10 00:07:59;;;;;;;3.60;3.10;;;;;;;16.53;59.92;99973.66;4993064;28;20047;-81
2021/05/10 00:10:25;;;;;;;4.28;2.65;;;;;;;16.67;59.17;99978.22;4984725;28;20419;-82
2021/05/10 00:12:51;;;;;;;3.80;2.55;;;;;;;16.56;60.27;99975.28;4974049;28;20117;-82
2021/05/10 00:15:17;;;;;;;3.25;2.88;;;;;;;16.55;60.19;99977.09;4989932;28;20046;-81
2021/05/10 00:17:44;;;;;;;2.90;2.30;;;;;;;16.54;59.85;99978.03;5005947;28;20104;-81
2021/05/10 00:20:10;;;;;;;3.40;2.40;;;;;;;16.51;60.33;99970.22;4957738;28;20038;-82
2021/05/10 00:22:36;;;;;;;2.97;2.60;;;;;;;16.52;60.25;99971.94;4976810;28;20045;-82
2021/05/10 00:25:03;;;;;;;3.25;2.70;;;;;;;16.53;59.37;99967.47;4976980;28;20105;-82
2021/05/10 00:27:30;;;;;;;3.35;2.30;;;;;;;16.50;59.37;99957.84;4975724;28;20052;-81
2021/05/10 00:29:56;;;;;;;2.80;2.45;;;;;;;16.44;59.72;99962.66;4964272;28;20038;-82
2021/05/10 00:32:23;;;;;;;2.78;2.30;;;;;;;16.40;60.25;99971.78;4996496;28;20101;-82
2021/05/10 00:34:56;;;;;;;4.20;2.60;;;;;;;16.36;60.27;99967.53;5002835;28;20053;-82
2021/05/10 00:37:22;;;;;;;2.85;2.55;;;;;;;16.42;59.32;99972.53;4980228;28;20038;-82
2021/05/10 00:39:49;;;;;;;6.30;2.53;;;;;;;16.42;59.96;99969.88;4997807;28;20042;-82
2021/05/10 00:42:15;;;;;;;3.65;2.55;;;;;;;16.40;59.75;99971.78;5013170;28;20080;-83
2021/05/10 00:44:41;;;;;;;3.20;2.63;;;;;;;16.33;60.39;99963.25;4997484;28;20057;-82
2021/05/10 00:47:07;;;;;;;3.45;2.17;;;;;;;16.29;59.08;99975.00;4993260;28;20042;-82
2021/05/10 00:49:33;;;;;;;3.75;2.58;;;;;;;16.20;59.91;99978.19;5006915;28;20152;-82
2021/05/10 00:51:59;;;;;;;3.92;2.75;;;;;;;16.25;59.77;99982.31;4996273;28;20046;-81
2021/05/10 00:54:25;;;;;;;3.10;2.60;;;;;;;16.12;60.62;99978.59;4995596;28;20061;-82
2021/05/10 00:56:52;;;;;;;3.00;2.50;;;;;;;16.06;61.29;99986.94;4996054;28;20061;-82
2021/05/10 00:59:18;;;;;;;2.95;2.42;;;;;;;16.05;60.52;99986.06;4977402;28;20046;-82
2021/05/10 01:01:44;;;;;;;3.85;2.85;;;;;;;15.94;61.11;99979.59;5013714;28;20049;-82
2021/05/10 01:04:10;;;;;;;3.17;2.50;;;;;;;15.94;61.32;99976.91;4988883;28;20042;-82
2021/05/10 01:06:37;;;;;;;3.40;2.50;;;;;;;15.93;61.47;99977.88;5004948;28;20038;-82
2021/05/10 01:09:04;;;;;;;3.08;2.65;;;;;;;15.80;61.96;99988.28;5011108;28;20046;-83
2021/05/10 01:11:30;;;;;;;2.70;2.40;;;;;;;15.83;61.44;99982.81;4989200;28;20414;-82
2021/05/10 01:13:56;;;;;;;3.63;2.65;;;;;;;15.75;61.52;99979.72;4979738;28;20037;-83
2021/05/10 01:16:22;;;;;;;3.17;2.80;;;;;;;15.81;61.14;99971.41;4979461;28;20038;-82
2021/05/10 01:18:49;;;;;;;2.75;2.40;;;;;;;15.80;61.52;99974.97;4980606;28;20034;-82
2021/05/10 01:21:17;;;;;;;3.20;2.20;;;;;;;15.74;61.29;99970.00;4993298;28;20071;-82
2021/05/10 01:23:44;;;;;;;2.95;2.40;;;;;;;15.76;60.77;99970.78;4989320;28;20062;-82
2021/05/10 01:26:10;;;;;;;3.08;2.40;;;;;;;15.76;61.62;99974.28;4995968;28;20038;-82
2021/05/10 01:28:37;;;;;;;2.85;2.55;;;;;;;15.74;60.59;99973.53;4962293;28;20050;-82
2021/05/10 01:31:03;;;;;;;3.75;2.85;;;;;;;15.69;60.79;99977.34;5005509;28;20100;-82
2021/05/10 01:33:29;;;;;;;2.75;2.33;;;;;;;15.58;61.62;99977.91;4969983;28;20046;-82
2021/05/10 01:35:56;;;;;;;2.70;2.35;;;;;;;15.57;61.26;99975.31;5007405;28;20035;-82
2021/05/10 01:38:22;;;;;;;4.00;2.78;;;;;;;15.59;61.86;99976.94;4994291;28;20068;-82
2021/05/10 01:40:48;;;;;;;4.05;2.60;;;;;;;15.54;61.68;99970.13;4962186;28;20407;-82
2021/05/10 01:43:16;;;;;;;2.50;2.30;;;;;;;15.46;62.40;99973.19;4987488;28;20042;-82
2021/05/10 01:45:43;;;;;;;3.33;2.45;;;;;;;15.37;61.85;99963.00;5007616;28;20046;-82
2021/05/10 01:48:11;;;;;;;2.97;2.60;;;;;;;15.34;61.98;99969.38;4992840;28;20043;-82
2021/05/10 01:50:39;;;;;;;3.72;2.58;;;;;;;15.34;61.74;99968.50;5026970;28;20046;-83
2021/05/10 01:53:06;;;;;;;2.50;2.28;;;;;;;15.35;61.29;99959.56;4977944;28;20101;-82
2021/05/10 01:55:33;;;;;;;3.50;2.30;;;;;;;15.32;61.73;99962.41;5011678;28;20069;-83
2021/05/10 01:58:00;;;;;;;3.85;2.42;;;;;;;15.31;61.51;99961.53;4962212;28;20042;-83
2021/05/10 02:00:29;;;;;;;2.60;2.10;;;;;;;15.19;62.14;99960.34;4992257;28;20037;-83
2021/05/10 02:03:22;;;;;;;3.08;2.25;;;;;;;15.15;62.51;99958.78;4986221;28;20034;-82
2021/05/10 02:05:50;;;;;;;3.65;2.25;;;;;;;15.15;62.51;99963.25;4994208;28;20521;-82
2021/05/10 02:08:18;;;;;;;2.88;2.50;;;;;;;15.10;62.17;99968.81;4993234;28;20049;-82
2021/05/10 02:10:46;;;;;;;3.97;2.75;;;;;;;15.14;61.75;99978.38;4994222;28;20042;-83
2021/05/10 02:13:14;;;;;;;2.88;2.28;;;;;;;15.05;63.57;99977.94;4990041;28;20415;-82
2021/05/10 02:15:43;;;;;;;3.40;2.50;;;;;;;15.00;62.42;99967.53;5004052;28;20046;-82
2021/05/10 02:18:11;;;;;;;3.55;2.25;;;;;;;14.92;62.90;99969.72;4970465;28;20456;-81
2021/05/10 02:20:38;;;;;;;3.00;2.25;;;;;;;14.90;62.19;99972.47;4964137;28;20660;-81
2021/05/10 02:23:09;;;;;;;2.67;2.30;;;;;;;14.92;62.23;99969.72;4992991;28;20066;-82
2021/05/10 02:25:37;;;;;;;4.72;2.60;;;;;;;14.90;63.14;99969.81;4962580;28;20045;-82
2021/05/10 02:28:05;;;;;;;2.35;1.90;;;;;;;14.88;62.83;99968.13;4992517;28;20483;-82
2021/05/10 02:30:32;;;;;;;3.85;2.80;;;;;;;14.83;62.55;99972.84;5009739;28;20435;-83
2021/05/10 02:33:00;;;;;;;3.05;2.40;;;;;;;14.78;62.83;99975.69;4985414;28;20817;-83
2021/05/10 02:35:26;;;;;;;3.72;2.60;;;;;;;14.83;63.05;99980.81;5001164;28;20046;-82
2021/05/10 02:37:53;;;;;;;2.88;2.20;;;;;;;14.65;63.46;99969.28;4994423;28;20037;-82
2021/05/10 02:40:19;;;;;;;2.88;2.33;;;;;;;14.81;62.06;99966.72;5003844;28;20046;-82
2021/05/10 02:42:46;;;;;;;3.17;2.25;;;;;;;14.75;61.80;99969.69;4975642;28;20191;-82
2021/05/10 02:45:13;;;;;;;3.33;2.25;;;;;;;14.66;62.53;99970.13;5007371;28;20490;-83
2021/05/10 02:47:39;;;;;;;2.65;2.20;;;;;;;14.68;63.03;99976.22;5023798;28;20038;-82
2021/05/10 02:50:09;;;;;;;2.53;2.20;;;;;;;14.66;62.50;99976.31;4989876;28;20061;-81
2021/05/10 02:52:35;;;;;;;2.83;2.15;;;;;;;14.59;62.97;99970.41;4994747;28;20050;-82
2021/05/10 02:55:02;;;;;;;4.15;2.40;;;;;;;14.55;63.31;99968.84;4970627;28;20046;-82
2021/05/10 02:57:28;;;;;;;2.97;2.47;;;;;;;14.48;63.74;99972.72;4995139;28;20029;-81
2021/05/10 02:59:54;;;;;;;2.53;2.08;;;;;;;14.37;64.47;99967.00;4988085;28;20050;-82
2021/05/10 03:02:21;;;;;;;4.07;2.50;;;;;;;14.28;65.09;99970.09;4962300;28;20054;-82
2021/05/10 03:04:49;;;;;;;3.58;2.08;;;;;;;14.28;64.08;99968.31;5012056;28;20050;-82
2021/05/10 03:07:15;;;;;;;2.97;2.33;;;;;;;14.29;63.91;99971.81;4962452;28;20052;-82
2021/05/10 03:09:41;;;;;;;4.60;2.58;;;;;;;14.33;63.48;99968.97;4978030;28;20042;-82
2021/05/10 03:12:07;;;;;;;2.40;2.10;;;;;;;14.24;65.42;99958.78;4992644;28;20053;-82
2021/05/10 03:14:34;;;;;;;4.28;2.90;;;;;;;14.13;65.37;99971.69;4968733;28;20041;-81
2021/05/10 03:17:00;;;;;;;3.45;2.28;;;;;;;14.13;64.45;99963.72;4962347;28;20511;-81
2021/05/10 03:19:26;;;;;;;4.70;2.42;;;;;;;14.12;63.36;99975.25;4988940;28;20118;-82
2021/05/10 03:21:52;;;;;;;4.68;2.38;;;;;;;14.16;63.54;99970.69;4995362;28;20109;-82
2021/05/10 03:24:18;;;;;;;5.70;2.53;;;;;;;14.15;63.80;99966.31;4986732;28;20049;-82
2021/05/10 03:26:45;;;;;;;11.85;3.13;;;;;;;14.08;64.24;99963.94;5007313;28;20042;-83
2021/05/10 03:29:11;;;;;;;4.03;2.65;;;;;;;14.08;64.16;99968.38;4972907;28;20046;-83
2021/05/10 03:31:37;;;;;;;3.58;2.60;;;;;;;14.14;64.00;99970.75;4992741;28;20053;-82
2021/05/10 03:34:04;;;;;;;2.10;1.90;;;;;;;14.16;63.50;99976.00;4991905;28;20044;-83
2021/05/10 03:36:30;;;;;;;4.13;2.15;;;;;;;14.14;63.43;99969.91;4971845;28;20042;-83
2021/05/10 03:38:57;;;;;;;2.88;2.20;;;;;;;14.16;64.80;99971.53;4981413;28;20493;-82
2021/05/10 03:41:26;;;;;;;4.03;2.95;;;;;;;14.20;63.40;99985.53;4989330;28;20093;-82
2021/05/10 03:43:52;;;;;;;2.88;2.08;;;;;;;14.14;63.19;99976.06;4979963;28;20053;-82
2021/05/10 03:46:18;;;;;;;3.92;2.45;;;;;;;14.05;63.33;99979.16;4970362;28;20035;-82
2021/05/10 03:48:44;;;;;;;3.33;2.22;;;;;;;14.09;63.88;99984.25;4975284;28;20049;-82
2021/05/10 03:51:11;;;;;;;3.28;2.40;;;;;;;14.18;63.07;99990.06;4976644;28;20046;-82
2021/05/10 03:53:41;;;;;;;4.75;2.65;;;;;;;14.16;63.13;99992.78;4977169;28;20124;-81
2021/05/10 03:56:07;;;;;;;3.03;2.35;;;;;;;14.13;63.54;99989.44;4974114;28;20054;-82
2021/05/10 03:58:33;;;;;;;3.55;2.33;;;;;;;14.10;63.53;99995.72;4969672;28;20099;-81
2021/05/10 04:00:59;;;;;;;4.43;2.72;;;;;;;14.12;63.19;99993.84;4962486;28;20458;-82
2021/05/10 04:03:31;;;;;;;4.38;2.30;;;;;;;14.05;63.27;99989.78;4981844;28;20491;-82
2021/05/10 04:13:51;;;;;;;4.18;2.30;;;;;;;13.98;64.16;99986.53;4997101;28;20053;-82
2021/05/10 04:16:17;;;;;;;2.90;2.22;;;;;;;14.01;64.41;99989.03;4984183;28;20097;-82
2021/05/10 04:18:44;;;;;;;3.20;2.30;;;;;;;14.07;63.62;99975.50;4981581;28;20081;-82
2021/05/10 04:21:10;;;;;;;2.50;2.28;;;;;;;14.16;63.11;99982.16;5013598;28;20111;-82
2021/05/10 04:23:36;;;;;;;3.80;2.40;;;;;;;14.24;62.66;99985.34;4997904;28;20038;-82
2021/05/10 04:26:02;;;;;;;2.70;2.10;;;;;;;14.27;62.59;99979.00;5005532;28;20051;-82
2021/05/10 04:28:30;;;;;;;2.60;2.15;;;;;;;14.25;62.79;99987.06;4997531;28;20041;-81
2021/05/10 04:30:56;;;;;;;3.38;2.30;;;;;;;14.18;63.53;99984.75;4980059;28;20052;-82
2021/05/10 04:33:30;;;;;;;4.53;2.50;;;;;;;14.25;63.92;99981.75;4982127;28;20052;-82
2021/05/10 04:35:56;;;;;;;4.95;2.53;;;;;;;14.15;64.26;99985.75;4993953;28;20052;-82
2021/05/10 04:38:23;;;;;;;3.80;2.70;;;;;;;14.14;63.35;99984.03;5013704;28;20132;-82
2021/05/10 04:40:50;;;;;;;3.67;2.53;;;;;;;14.22;63.56;99987.22;4995479;28;20491;-82
2021/05/10 04:43:16;;;;;;;3.47;2.75;;;;;;;14.16;63.66;99994.59;4961841;28;20073;-82
2021/05/10 04:45:43;;;;;;;5.20;3.03;;;;;;;14.17;63.69;99998.97;4972009;28;20038;-82
2021/05/10 04:48:10;;;;;;;4.82;2.60;;;;;;;14.20;62.38;99991.72;4989743;28;20034;-82
2021/05/10 04:50:36;;;;;;;3.28;2.28;;;;;;;14.20;63.13;99989.06;4980360;28;20038;-82
2021/05/10 04:53:02;;;;;;;2.88;2.15;;;;;;;14.31;63.62;99981.47;5012348;28;20537;-83
2021/05/10 04:55:29;;;;;;;3.20;2.65;;;;;;;14.38;62.16;99995.34;5011478;28;20050;-82
2021/05/10 04:57:55;;;;;;;4.68;2.50;;;;;;;14.51;61.29;99985.00;4990381;28;20518;-82
2021/05/10 05:00:21;;;;;;;2.80;2.28;;;;;;;14.82;60.64;99992.38;4978000;28;20074;-82
2021/05/10 05:02:47;;;;;;;4.57;2.10;;;;;;;14.88;60.52;99986.75;4985095;28;20057;-82
2021/05/10 05:05:13;;;;;;;3.50;2.35;;;;;;;14.88;61.53;99984.09;5003134;28;20113;-82
2021/05/10 05:07:40;;;;;;;3.28;2.13;;;;;;;14.85;59.59;99982.44;5009842;28;20097;-82
2021/05/10 05:10:10;;;;;;;3.08;2.30;;;;;;;14.97;58.95;99980.16;4990445;28;20046;-82
2021/05/10 05:12:39;;;;;;;3.97;2.50;;;;;;;15.03;58.45;99974.50;4999439;28;20380;-81
2021/05/10 05:15:07;;;;;;;3.78;2.17;;;;;;;14.97;59.02;99982.81;4964925;28;20137;-82
2021/05/10 05:17:34;;;;;;;3.42;2.30;;;;;;;15.26;57.78;99976.88;4978459;28;20529;-82
2021/05/10 05:20:01;;;;;;;3.33;2.05;;;;;;;15.46;57.28;99968.72;4994291;28;20117;-81
2021/05/10 05:22:27;;;;;;;3.90;2.28;;;;;;;15.51;57.82;99970.31;4999322;28;20053;-81
2021/05/10 05:24:56;;;;;;;2.92;1.95;;;;;;;15.48;56.99;99964.19;4981094;28;20049;-81
2021/05/10 05:27:24;;;;;;;3.65;2.17;;;;;;;15.59;56.72;99976.94;4981119;28;20035;-81
2021/05/10 05:29:50;;;;;;;3.20;1.92;;;;;;;15.72;56.24;99978.06;4961180;28;20098;-82
2021/05/10 05:32:16;;;;;;;3.17;2.13;;;;;;;15.86;56.23;99979.13;4994992;28;20034;-81
2021/05/10 05:34:43;;;;;;;2.67;2.00;;;;;;;15.93;55.15;99965.41;4990473;28;20054;-81
2021/05/10 05:37:09;;;;;;;4.63;2.42;;;;;;;15.94;55.08;99977.78;4977869;28;20038;-81
2021/05/10 05:39:35;;;;;;;3.67;2.10;;;;;;;15.98;55.40;99978.50;4986245;28;20054;-81
2021/05/10 05:42:01;;;;;;;2.53;2.13;;;;;;;15.93;56.46;99976.06;4995254;28;20045;-81
2021/05/10 05:44:32;;;;;;;2.95;1.90;;;;;;;15.95;56.89;99967.97;4995283;28;20041;-80
2021/05/10 05:47:03;;;;;;;3.15;2.10;;;;;;;15.99;54.33;99959.75;4979445;28;20403;-80
2021/05/10 05:49:31;;;;;;;3.42;2.08;;;;;;;16.10;54.69;99953.84;5023081;28;20053;-80
2021/05/10 05:51:58;;;;;;;2.58;2.05;;;;;;;16.25;53.80;99958.34;4997943;28;20045;-80
2021/05/10 05:54:24;;;;;;;2.55;2.00;;;;;;;16.36;53.56;99962.22;4988426;28;20525;-80
2021/05/10 05:56:51;;;;;;;3.13;2.53;;;;;;;16.46;54.11;99968.75;5003733;28;20042;-80
2021/05/10 05:59:17;;;;;;;2.83;2.22;;;;;;;16.54;53.44;99958.50;4998036;28;20506;-80
2021/05/10 06:01:44;;;;;;;3.88;2.25;;;;;;;17.48;51.49;99970.84;4984274;28;20042;-80
2021/05/10 06:04:11;;;;;;;4.43;1.88;;;;;;;18.90;48.92;99971.78;4993327;28;20062;-80
2021/05/10 06:06:37;;;;;;;3.83;2.10;;;;;;;19.11;47.71;99968.56;4995202;28;20034;-80
2021/05/10 06:09:06;;;;;;;2.70;2.30;;;;;;;19.79;45.32;99962.16;5012069;28;20601;-80
2021/05/10 06:11:33;;;;;;;3.40;2.28;;;;;;;19.48;45.47;99962.53;4964854;28;20046;-80
2021/05/10 06:13:59;;;;;;;2.83;2.08;;;;;;;20.10;46.00;99971.59;5001557;28;20438;-81
2021/05/10 06:16:32;;;;;;;5.25;2.03;;;;;;;21.30;42.06;99971.81;5032996;28;20041;-80
2021/05/10 06:18:58;;;;;;;4.13;2.20;;;;;;;22.05;40.99;99974.06;4967318;28;20331;-80
2021/05/10 06:21:25;;;;;;;2.90;1.90;;;;;;;22.30;39.95;99973.84;4977508;28;20061;-80
2021/05/10 06:23:52;;;;;;;2.70;2.30;;;;;;;23.28;38.77;99972.03;4992169;28;20053;-80
2021/05/10 06:26:19;;;;;;;2.55;2.03;;;;;;;22.15;38.53;99975.06;5012771;28;20101;-81
2021/05/10 06:28:45;;;;;;;4.30;2.17;;;;;;;21.66;39.86;99988.75;4981533;28;20748;-81
2021/05/10 06:31:12;;;;;;;2.70;1.95;;;;;;;21.76;41.25;99993.31;4994378;28;20038;-80
2021/05/10 06:33:38;;;;;;;4.38;2.03;;;;;;;21.78;42.41;99988.69;4967611;28;20053;-80
2021/05/10 06:36:05;;;;;;;3.15;2.10;;;;;;;21.69;40.76;99997.44;4963264;28;20104;-80
2021/05/10 06:38:33;;;;;;;2.95;2.13;;;;;;;21.29;41.55;100005.88;4995798;28;20052;-82
2021/05/10 06:41:00;;;;;;;7.40;2.70;;;;;;;20.98;42.10;100001.03;4995970;28;20049;-81
2021/05/10 06:43:26;;;;;;;2.70;2.22;;;;;;;20.95;43.56;99995.91;5023259;28;20097;-81
2021/05/10 06:45:55;;;;;;;2.80;2.30;;;;;;;20.90;43.79;99993.53;4981584;28;20065;-82
2021/05/10 06:48:39;;;;;;;3.25;2.10;;;;;;;21.06;43.43;99995.97;5019389;28;20034;-81
2021/05/10 06:51:06;;;;;;;2.50;2.10;;;;;;;21.33;43.52;99998.44;4991002;28;20042;-81
2021/05/10 06:53:32;;;;;;;2.83;2.47;;;;;;;21.48;42.57;99991.03;4975295;28;20040;-81
2021/05/10 06:55:58;;;;;;;5.00;2.20;;;;;;;21.41;42.78;99992.47;4979366;28;20104;-81
2021/05/10 06:58:24;;;;;;;3.13;2.00;;;;;;;21.51;43.82;99982.72;5071756;23;20098;-83
2021/05/10 07:00:53;;;;;;;3.72;2.85;;;;;;;21.46;42.67;99982.25;5013080;28;20132;-83
2021/05/10 07:03:20;;;;;;;3.28;2.28;;;;;;;21.40;40.72;99985.38;5017625;28;20423;-83
2021/05/10 07:05:47;;;;;;;3.65;2.00;;;;;;;21.67;43.06;99994.03;5030999;28;20045;-82
2021/05/10 07:08:14;;;;;;;3.70;1.92;;;;;;;21.89;44.29;99985.16;5014831;28;20041;-82
2021/05/10 07:10:40;;;;;;;2.67;2.22;;;;;;;22.10;42.47;99974.56;5000976;28;20056;-83
2021/05/10 07:13:06;;;;;;;3.92;2.30;;;;;;;21.99;42.00;99967.31;5005717;28;20052;-83
2021/05/10 07:15:34;;;;;;;5.03;2.22;;;;;;;22.12;41.40;99973.47;5031180;28;20044;-84
2021/05/10 07:18:05;;;;;;;3.35;2.33;;;;;;;22.36;44.40;99976.03;4994381;28;20437;-83
2021/05/10 07:20:32;;;;;;;3.38;2.33;;;;;;;22.48;41.90;99966.97;4989312;28;20041;-83
2021/05/10 07:22:59;;;;;;;3.78;2.47;;;;;;;22.44;41.03;99960.09;5008697;28;20132;-83
2021/05/10 07:25:25;;;;;;;3.75;2.33;;;;;;;22.53;40.01;99960.34;5002097;28;20060;-83
2021/05/10 07:27:51;;;;;;;3.50;2.33;;;;;;;22.72;42.25;99961.44;5019070;28;20440;-84
2021/05/10 07:30:18;;;;;;;2.80;2.28;;;;;;;22.90;40.42;99959.09;5017306;28;20056;-84
2021/05/10 07:32:44;;;;;;;3.58;2.30;;;;;;;22.95;38.99;99956.88;5026500;28;20046;-83
2021/05/10 07:35:11;;;;;;;3.33;2.10;;;;;;;22.81;38.17;99965.22;5016849;28;20420;-84
2021/05/10 07:37:37;;;;;;;2.35;1.85;;;;;;;22.82;39.28;99966.06;5027328;28;20090;-83
2021/05/10 07:40:04;;;;;;;5.18;2.78;;;;;;;22.89;38.38;99967.31;5043885;28;20045;-82
2021/05/10 07:42:31;;;;;;;3.20;1.80;;;;;;;23.08;41.00;99970.16;5003353;28;20045;-84
2021/05/10 07:44:59;;;;;;;2.38;2.00;;;;;;;23.34;40.00;99976.06;5050572;28;20045;-85
2021/05/10 07:47:25;;;;;;;2.38;2.10;;;;;;;23.22;37.35;99972.56;5021117;28;20033;-82
2021/05/10 07:49:52;;;;;;;2.97;2.00;;;;;;;23.54;39.38;99961.75;5033091;28;20055;-84
2021/05/10 07:52:18;;;;;;;3.88;1.98;;;;;;;23.55;37.18;99955.38;5003362;28;20055;-85
2021/05/10 07:54:44;;;;;;;3.75;2.00;;;;;;;23.60;39.38;99949.59;5050578;28;20041;-84
2021/05/10 07:57:10;;;;;;;2.97;2.35;;;;;;;23.98;39.70;99953.53;5015275;28;20059;-85
2021/05/10 07:59:37;;;;;;;2.72;2.38;;;;;;;24.12;36.56;99943.22;5006227;28;20053;-85
2021/05/10 08:02:05;;;;;;;4.68;2.63;;;;;;;24.15;39.85;99942.09;5030607;28;20037;-81
2021/05/10 08:04:31;;;;;;;2.78;1.83;;;;;;;24.28;37.69;99945.41;5025853;28;20649;-84
2021/05/10 08:06:58;;;;;;;2.85;2.00;;;;;;;24.32;39.22;99943.34;5031564;28;20042;-83
2021/05/10 08:09:24;;;;;;;3.63;2.20;;;;;;;24.09;37.71;99945.34;5018268;28;20052;-82
2021/05/10 08:11:50;;;;;;;4.13;2.05;;;;;;;24.29;39.97;99949.81;5007355;28;20049;-82
2021/05/10 08:14:17;;;;;;;2.38;2.05;;;;;;;24.51;36.96;99948.78;5017521;28;20045;-84
2021/05/10 08:16:46;;;;;;;2.72;2.45;;;;;;;24.72;37.42;99956.81;5005213;28;20049;-84
2021/05/10 08:19:12;;;;;;;4.53;2.33;;;;;;;24.81;36.40;99953.28;5022351;28;20059;-82
2021/05/10 08:21:40;;;;;;;3.70;2.20;;;;;;;24.70;35.17;99947.97;5017760;28;20049;-84
2021/05/10 08:24:07;;;;;;;3.25;2.05;;;;;;;24.68;36.04;99945.44;5014464;28;20103;-81
2021/05/10 08:26:33;;;;;;;3.95;1.88;;;;;;;24.56;36.62;99938.44;5013080;28;20037;-84
2021/05/10 08:28:59;;;;;;;6.50;2.40;;;;;;;24.74;36.65;99940.47;5022630;28;20037;-84
2021/05/10 08:31:25;;;;;;;2.83;2.17;;;;;;;25.06;38.03;99935.72;5012940;28;20042;-85
2021/05/10 08:33:52;;;;;;;3.78;2.33;;;;;;;25.24;36.97;99946.66;5016518;28;20041;-84
2021/05/10 08:36:18;;;;;;;3.40;2.50;;;;;;;25.29;35.69;99947.06;5014395;28;20044;-85
2021/05/10 08:38:45;;;;;;;4.90;2.28;;;;;;;25.48;37.20;99962.44;5031629;28;20051;-81
2021/05/10 08:41:11;;;;;;;3.00;2.20;;;;;;;25.62;36.46;99961.13;5033328;28;20033;-84
2021/05/10 08:43:37;;;;;;;2.58;2.38;;;;;;;25.59;35.31;99950.63;5002299;28;20453;-84
2021/05/10 08:46:06;;;;;;;3.80;2.58;;;;;;;25.24;35.20;99947.50;5010501;28;20504;-83
2021/05/10 08:48:32;;;;;;;3.40;2.35;;;;;;;25.43;35.68;99949.34;5041628;28;20066;-84
2021/05/10 08:50:59;;;;;;;2.85;2.15;;;;;;;25.49;35.29;99954.19;5026340;28;20052;-84
2021/05/10 08:53:39;;;;;;;2.60;2.30;;;;;;;25.01;35.23;99951.44;5010402;28;20193;-85
2021/05/10 08:56:07;;;;;;;2.97;2.40;;;;;;;25.33;34.97;99944.94;5038076;28;20492;-85
2021/05/10 08:58:38;;;;;;;3.58;2.30;;;;;;;25.53;34.84;99936.66;5037099;28;20132;-83
2021/05/10 09:01:05;;;;;;;3.20;2.40;;;;;;;25.65;34.94;99939.22;5042344;28;20041;-85
2021/05/10 09:03:40;;;;;;;3.45;2.40;;;;;;;25.70;34.94;99926.94;5005047;28;20069;-85
2021/05/10 09:06:11;;;;;;;4.20;2.50;;;;;;;25.56;35.81;99935.53;5023713;28;20053;-86
2021/05/10 09:08:42;;;;;;;3.25;2.20;;;;;;;25.93;35.72;99934.75;5022068;28;20051;-83
2021/05/10 09:11:19;;;;;;;3.45;2.28;;;;;;;26.01;34.35;99940.28;5012842;28;20133;-85
2021/05/10 09:13:57;;;;;;;4.50;2.47;;;;;;;25.91;34.86;99944.88;5028964;28;20062;-85
2021/05/10 09:16:24;;;;;;;2.28;2.00;;;;;;;26.16;34.55;99938.81;5088319;28;20056;-84
2021/05/10 09:18:57;;;;;;;2.42;2.15;;;;;;;25.99;35.27;99940.44;5011423;28;20045;-84
2021/05/10 09:21:30;;;;;;;3.35;2.60;;;;;;;26.18;34.76;99936.78;5027993;28;20044;-84
2021/05/10 09:24:19;;;;;;;3.20;2.70;;;;;;;26.16;33.68;99930.69;5034992;28;20083;-83
2021/05/10 09:27:35;;;;;;;4.68;2.70;;;;;;;26.11;34.88;99930.28;5035348;28;20245;-84
2021/05/10 09:30:23;;;;;;;3.20;2.17;;;;;;;26.28;34.56;99939.47;5054227;28;20049;-85
2021/05/10 09:32:52;;;;;;;2.75;2.50;;;;;;;26.29;36.54;99924.91;5043399;28;20044;-85
2021/05/10 09:35:29;;;;;;;3.30;2.72;;;;;;;26.27;32.86;99913.38;5004716;28;20051;-83
2021/05/10 09:37:57;;;;;;;5.00;2.35;;;;;;;26.41;33.66;99925.63;5019898;28;20440;-85
2021/05/10 09:40:28;;;;;;;3.25;2.45;;;;;;;25.70;33.85;99921.53;5032690;28;20044;-85
2021/05/10 09:43:08;;;;;;;3.72;2.35;;;;;;;25.90;33.90;99922.38;5018761;28;20061;-83
2021/05/10 09:45:37;;;;;;;2.83;2.45;;;;;;;26.48;35.08;99929.41;5004962;28;20044;-84
2021/05/10 09:48:33;;;;;;;4.35;2.60;;;;;;;26.66;34.59;99922.19;5002922;28;20044;-84
2021/05/10 09:51:02;;;;;;;8.18;3.00;;;;;;;26.57;32.21;99921.25;5006322;28;20048;-85
2021/05/10 09:53:38;;;;;;;3.13;2.45;;;;;;;26.65;32.79;99921.34;5012797;28;20489;-85
2021/05/10 09:56:07;;;;;;;3.38;2.25;;;;;;;26.95;33.09;99919.25;5006905;28;20045;-86
2021/05/10 09:58:44;;;;;;;4.07;2.80;;;;;;;26.54;33.22;99921.53;5033566;28;20033;-85
2021/05/10 10:01:17;;;;;;;3.10;2.70;;;;;;;26.94;34.89;99926.53;5017415;28;20711;-86
2021/05/10 10:03:48;;;;;;;5.05;2.35;;;;;;;27.25;35.81;99920.75;5000087;28;20053;-84
2021/05/10 10:06:18;;;;;;;3.47;2.83;;;;;;;27.54;33.12;99923.19;5019132;28;20041;-85
2021/05/10 10:08:46;;;;;;;3.97;2.63;;;;;;;27.75;32.92;99912.00;5001119;28;20136;-86
2021/05/10 10:11:20;;;;;;;2.90;2.60;;;;;;;27.92;32.76;99916.53;5006451;28;20045;-85
2021/05/10 10:13:51;;;;;;;6.60;3.17;;;;;;;27.72;31.26;99909.59;5014396;28;20479;-85
2021/05/10 10:16:20;;;;;;;3.33;2.70;;;;;;;27.46;31.75;99904.97;5011716;28;20049;-85
2021/05/10 10:18:48;;;;;;;3.65;2.88;;;;;;;27.54;31.34;99925.06;5050796;28;20037;-85
2021/05/10 10:21:17;;;;;;;2.80;2.47;;;;;;;27.21;32.22;99917.50;5040026;28;20045;-85
2021/05/10 10:23:45;;;;;;;3.95;2.60;;;;;;;27.32;34.71;99921.81;5010224;28;20132;-85
2021/05/10 10:26:33;;;;;;;5.85;2.88;;;;;;;27.23;33.31;99916.47;4996512;28;20053;-86
2021/05/10 10:29:07;;;;;;;3.67;2.55;;;;;;;27.61;35.67;99929.69;5032403;28;20037;-86
2021/05/10 10:31:36;;;;;;;3.38;2.92;;;;;;;27.53;32.31;99918.78;5030431;28;20048;-85
2021/05/10 10:34:18;;;;;;;3.45;2.70;;;;;;;27.27;31.69;99910.59;5017454;28;20060;-84
2021/05/10 10:36:49;;;;;;;4.55;2.75;;;;;;;27.03;33.85;99911.25;5034652;28;20051;-84
2021/05/10 10:39:25;;;;;;;3.72;2.50;;;;;;;26.83;34.72;99910.50;5029058;28;20052;-83
2021/05/10 10:42:02;;;;;;;3.00;2.58;;;;;;;27.15;34.81;99914.56;5030709;28;20053;-85
2021/05/10 10:44:32;;;;;;;3.05;2.42;;;;;;;27.48;35.64;99910.25;5066105;28;20030;-85
2021/05/10 10:46:58;;;;;;;3.95;2.80;;;;;;;27.38;33.24;99910.34;5030831;28;20045;-84
2021/05/10 10:49:27;;;;;;;4.30;2.78;;;;;;;27.50;34.57;99902.81;5016325;28;20266;-84
2021/05/10 10:51:53;;;;;;;5.15;2.90;;;;;;;27.16;32.73;99908.16;5045350;28;20508;-83
2021/05/10 10:54:22;;;;;;;3.15;2.70;;;;;;;27.27;34.89;99924.16;5033232;28;20037;-84
2021/05/10 10:56:59;;;;;;;4.97;2.83;;;;;;;27.12;32.44;99926.56;5025430;28;20052;-86
2021/05/10 10:59:37;;;;;;;3.95;2.70;;;;;;;26.98;32.93;99926.22;5042228;28;20041;-84
2021/05/10 11:02:26;;;;;;;5.05;2.40;;;;;;;27.40;32.84;99926.47;5032920;28;20025;-84
2021/05/10 11:05:10;;;;;;;3.28;2.78;;;;;;;27.84;34.92;99938.19;5034220;28;20099;-85
2021/05/10 11:08:04;;;;;;;6.97;2.78;;;;;;;27.69;32.29;99913.50;5029660;28;20071;-86
2021/05/10 11:10:50;;;;;;;3.13;2.50;;;;;;;27.93;33.41;99920.94;5031485;28;20068;-84
2021/05/10 11:13:26;;;;;;;2.50;2.30;;;;;;;28.14;32.64;99922.41;5066579;28;20089;-84
2021/05/10 11:15:54;;;;;;;3.55;2.80;;;;;;;27.69;33.78;99913.50;5042517;28;20053;-84
2021/05/10 11:18:47;;;;;;;2.67;2.42;;;;;;;28.09;33.42;99913.91;5014802;28;20041;-85
2021/05/10 11:21:22;;;;;;;2.70;2.50;;;;;;;28.41;32.65;99910.47;5025156;28;20350;-86
2021/05/10 11:23:59;;;;;;;4.95;3.35;;;;;;;28.51;32.20;99908.50;5041562;28;20058;-84
2021/05/10 11:26:56;;;;;;;3.65;2.60;;;;;;;28.72;30.72;99908.03;5036394;28;20063;-83
2021/05/10 11:29:25;;;;;;;2.78;2.58;;;;;;;28.58;32.40;99907.66;5011813;28;20041;-85
2021/05/10 11:31:58;;;;;;;4.55;2.83;;;;;;;28.30;31.37;99893.47;5046838;28;20701;-84
2021/05/10 11:34:32;;;;;;;13.55;4.32;;;;;;;28.44;31.79;99897.44;5042925;28;20049;-85
2021/05/10 11:36:59;;;;;;;3.35;2.55;;;;;;;28.65;32.26;99905.13;5048869;28;20376;-85
2021/05/10 11:39:27;;;;;;;5.78;3.75;;;;;;;28.85;31.34;99900.25;5021006;28;20044;-86
2021/05/10 11:41:56;;;;;;;3.28;2.42;;;;;;;28.77;32.99;99894.81;5001280;28;20100;-85
2021/05/10 11:44:25;;;;;;;4.15;2.58;;;;;;;28.78;30.78;99896.50;5022950;28;20065;-84
2021/05/10 11:46:56;;;;;;;4.85;2.83;;;;;;;28.71;32.58;99892.75;5043078;28;20047;-84
2021/05/10 11:49:35;;;;;;;3.03;2.70;;;;;;;28.31;32.39;99907.91;5035284;28;20052;-86